Time;durP1;ratioP1;P1;durP2;ratioP2;P2;SDS_P1;SDS_P2;PMS_P1;PMS_P2;Temp;Humidity;BMP_temperature;BMP_pressure;BME280_temperature;BME280_humidity;BME280_pressure;Samples;Min_cycle;Max_cycle;Signal;HPM_P1;HPM_P2
2023/01/30 00:01:15;;;;;;;47.63;23.13;;;5.60;99.90;;;;;;5028312;28;20196;-65
2023/01/30 00:03:45;;;;;;;51.27;24.50;;;5.50;99.90;;;;;;5037624;28;20639;-66
2023/01/30 00:06:15;;;;;;;48.53;24.30;;;5.50;99.90;;;;;;5022237;28;20224;-65
2023/01/30 00:08:43;;;;;;;45.67;23.60;;;5.60;99.90;;;;;;5014531;28;20269;-65
2023/01/30 00:11:14;;;;;;;50.97;24.80;;;5.60;99.90;;;;;;5024237;28;20202;-65
2023/01/30 00:13:43;;;;;;;49.37;23.27;;;5.60;99.90;;;;;;5020842;28;20212;-66
2023/01/30 00:16:13;;;;;;;42.37;22.93;;;5.70;99.90;;;;;;5027274;28;20186;-65
2023/01/30 00:18:42;;;;;;;49.50;27.33;;;5.70;99.90;;;;;;5030905;28;20201;-65
2023/01/30 00:21:14;;;;;;;45.13;23.80;;;5.60;99.90;;;;;;5026353;28;20194;-65
2023/01/30 00:23:43;;;;;;;40.93;21.50;;;5.60;99.90;;;;;;5016725;28;20194;-65
2023/01/30 00:26:12;;;;;;;44.30;23.10;;;5.60;99.90;;;;;;5026705;28;20193;-65
2023/01/30 00:28:40;;;;;;;42.50;23.10;;;5.70;99.90;;;;;;5029691;28;20598;-65
2023/01/30 00:31:09;;;;;;;43.13;22.40;;;5.70;99.90;;;;;;5017706;28;20191;-65
2023/01/30 00:33:38;;;;;;;38.27;20.60;;;5.60;99.90;;;;;;5013726;28;20688;-65
2023/01/30 00:36:07;;;;;;;43.13;22.10;;;5.70;99.90;;;;;;5024454;28;20197;-65
2023/01/30 00:38:37;;;;;;;38.10;21.37;;;5.70;99.90;;;;;;5031102;28;20201;-66
2023/01/30 00:41:05;;;;;;;40.23;20.77;;;5.70;99.90;;;;;;5016656;28;20214;-65
2023/01/30 00:49:12;;;;;;;38.50;20.93;;;5.70;99.90;;;;;;5019711;28;20249;-65
2023/01/30 00:51:41;;;;;;;37.70;19.87;;;5.70;99.90;;;;;;5024977;28;20201;-65
2023/01/30 00:54:11;;;;;;;39.07;19.60;;;5.70;99.90;;;;;;5023768;28;20278;-66
2023/01/30 00:56:39;;;;;;;41.73;20.07;;;5.70;99.90;;;;;;5005575;28;20206;-66
2023/01/30 00:59:07;;;;;;;35.90;19.03;;;5.80;99.90;;;;;;5016943;28;20637;-66
2023/01/30 01:01:37;;;;;;;36.20;19.57;;;5.80;99.90;;;;;;5024569;28;20204;-66
2023/01/30 01:04:07;;;;;;;35.77;19.70;;;5.80;99.90;;;;;;5029177;28;20185;-66
2023/01/30 01:06:37;;;;;;;39.13;19.60;;;5.90;99.90;;;;;;5022863;28;20190;-65
2023/01/30 01:09:06;;;;;;;40.93;18.73;;;5.90;99.90;;;;;;5031676;28;20240;-66
2023/01/30 01:11:36;;;;;;;34.37;18.97;;;5.90;99.90;;;;;;5021217;28;20648;-66
2023/01/30 01:14:05;;;;;;;35.70;19.17;;;5.90;99.90;;;;;;5022949;28;20749;-66
2023/01/30 01:16:34;;;;;;;37.67;19.17;;;5.90;99.90;;;;;;5026264;28;20197;-65
2023/01/30 01:19:03;;;;;;;34.47;18.60;;;5.90;99.90;;;;;;5027698;28;20674;-65
2023/01/30 01:21:32;;;;;;;36.83;20.13;;;5.90;99.90;;;;;;5012283;28;20202;-65
2023/01/30 01:24:01;;;;;;;42.17;19.67;;;5.90;99.90;;;;;;5023399;28;20505;-66
2023/01/30 01:26:29;;;;;;;31.70;19.10;;;5.90;99.90;;;;;;5024885;28;20190;-65
2023/01/30 01:28:59;;;;;;;33.13;18.40;;;5.90;99.90;;;;;;5027300;28;20193;-66
2023/01/30 01:31:27;;;;;;;34.37;19.20;;;5.90;99.90;;;;;;5027388;28;20193;-65
2023/01/30 01:33:56;;;;;;;34.43;18.40;;;6.00;99.90;;;;;;5020224;28;20584;-65
2023/01/30 01:36:25;;;;;;;37.63;18.80;;;6.00;99.90;;;;;;5027019;28;20280;-65
2023/01/30 01:39:15;;;;;;;36.40;18.13;;;5.90;99.90;;;;;;5025284;28;20198;-65
2023/01/30 01:41:43;;;;;;;36.47;18.20;;;6.00;99.90;;;;;;5027851;28;20255;-66
2023/01/30 01:44:15;;;;;;;34.53;18.60;;;6.10;99.90;;;;;;5026524;28;21033;-65
2023/01/30 01:46:50;;;;;;;28.47;17.00;;;6.10;99.90;;;;;;5030201;28;20228;-65
2023/01/30 01:49:23;;;;;;;31.50;16.83;;;6.10;99.90;;;;;;5024626;28;20194;-66
2023/01/30 01:51:56;;;;;;;38.30;18.03;;;6.20;99.90;;;;;;5015806;28;20537;-65
2023/01/30 01:54:29;;;;;;;31.43;16.53;;;6.10;99.90;;;;;;5030602;28;20227;-65
2023/01/30 01:57:01;;;;;;;32.13;16.30;;;6.20;99.90;;;;;;5034307;28;20201;-65
2023/01/30 01:59:34;;;;;;;26.00;15.83;;;6.20;99.90;;;;;;5034430;28;20190;-65
2023/01/30 02:02:09;;;;;;;32.03;16.23;;;6.30;99.90;;;;;;5033708;28;20197;-65
2023/01/30 02:07:29;;;;;;;26.63;15.17;;;6.30;99.90;;;;;;5033846;28;20276;-65
2023/01/30 02:09:58;;;;;;;36.17;15.63;;;6.30;99.90;;;;;;5029759;28;20205;-66
2023/01/30 02:12:26;;;;;;;29.73;15.93;;;6.30;99.90;;;;;;5033259;28;20198;-65
2023/01/30 02:14:57;;;;;;;29.07;14.87;;;6.30;99.90;;;;;;5033866;28;20623;-65
2023/01/30 02:17:26;;;;;;;31.53;15.43;;;6.30;99.90;;;;;;5034638;28;20200;-65
2023/01/30 02:20:01;;;;;;;28.83;14.97;;;6.40;99.90;;;;;;5029771;28;20194;-65
2023/01/30 02:22:45;;;;;;;28.03;14.60;;;6.40;99.90;;;;;;5016655;28;20280;-65
2023/01/30 02:25:25;;;;;;;26.70;15.70;;;6.40;99.90;;;;;;5023074;28;20193;-65
2023/01/30 02:28:33;;;;;;;31.60;14.73;;;6.30;99.90;;;;;;5026050;28;20194;-65
2023/01/30 02:31:13;;;;;;;29.00;15.60;;;6.20;99.90;;;;;;5029391;28;20212;-65
2023/01/30 02:33:50;;;;;;;24.30;14.27;;;6.20;99.90;;;;;;4997340;28;21030;-66
2023/01/30 02:36:26;;;;;;;25.53;15.27;;;6.20;99.90;;;;;;5020052;28;20199;-65
2023/01/30 02:39:02;;;;;;;28.77;14.90;;;6.10;99.90;;;;;;5022764;28;20205;-65
2023/01/30 02:41:37;;;;;;;31.07;15.47;;;6.00;99.90;;;;;;5027347;28;20284;-65
2023/01/30 02:44:11;;;;;;;31.37;15.53;;;6.00;99.90;;;;;;5021460;28;20284;-66
2023/01/30 02:46:50;;;;;;;35.20;15.20;;;5.90;99.90;;;;;;5027119;28;20235;-65
2023/01/30 02:49:23;;;;;;;29.47;14.27;;;6.00;99.90;;;;;;5029808;28;20189;-65
2023/01/30 02:51:54;;;;;;;34.10;14.53;;;6.00;99.90;;;;;;5028405;28;20401;-65
2023/01/30 02:54:22;;;;;;;27.63;14.60;;;6.00;99.90;;;;;;5019891;28;20681;-65
2023/01/30 02:56:52;;;;;;;30.30;14.50;;;6.00;99.90;;;;;;5021229;28;20201;-65
2023/01/30 02:59:27;;;;;;;27.50;14.00;;;6.00;99.90;;;;;;5027780;28;20272;-65
2023/01/30 03:02:13;;;;;;;28.00;13.80;;;6.00;99.90;;;;;;5026001;28;20201;-65
2023/01/30 03:04:57;;;;;;;30.43;13.27;;;6.00;99.90;;;;;;5025409;28;20229;-65
2023/01/30 03:07:38;;;;;;;29.17;13.30;;;6.00;99.90;;;;;;5013422;28;20240;-65
2023/01/30 03:10:13;;;;;;;26.03;12.73;;;5.90;99.90;;;;;;5029579;28;20205;-65
2023/01/30 03:12:52;;;;;;;25.87;12.73;;;5.90;99.90;;;;;;5024389;28;20201;-66
2023/01/30 03:15:27;;;;;;;25.50;13.47;;;5.90;99.90;;;;;;5032208;28;20216;-65
2023/01/30 03:17:58;;;;;;;30.60;13.10;;;6.00;99.90;;;;;;5022868;28;20197;-65
2023/01/30 03:20:26;;;;;;;26.27;12.33;;;6.10;99.90;;;;;;5015156;28;20198;-65
2023/01/30 03:22:56;;;;;;;23.90;12.20;;;6.20;99.90;;;;;;5021537;28;20206;-66
2023/01/30 03:25:26;;;;;;;20.43;12.00;;;6.20;99.90;;;;;;5031841;28;20245;-65
2023/01/30 03:27:56;;;;;;;19.70;11.60;;;6.30;99.90;;;;;;5032212;28;20377;-65
2023/01/30 03:30:26;;;;;;;20.87;11.13;;;6.40;99.90;;;;;;5022052;28;20202;-65
2023/01/30 03:32:55;;;;;;;18.47;11.07;;;6.40;99.90;;;;;;5022880;28;20197;-65
2023/01/30 03:35:25;;;;;;;22.53;10.67;;;6.40;99.90;;;;;;5031412;28;20220;-65
2023/01/30 03:37:53;;;;;;;22.63;10.30;;;6.50;99.90;;;;;;5032147;28;20235;-65
2023/01/30 03:40:23;;;;;;;18.77;10.73;;;6.50;99.90;;;;;;5024481;28;20197;-66
2023/01/30 03:42:51;;;;;;;20.83;9.93;;;6.50;99.90;;;;;;5019476;28;20194;-65
2023/01/30 03:45:19;;;;;;;22.77;9.80;;;6.50;99.90;;;;;;5024506;28;20562;-65
2023/01/30 03:47:48;;;;;;;19.43;10.50;;;6.50;99.90;;;;;;5029227;28;20189;-65
2023/01/30 03:50:17;;;;;;;26.93;9.83;;;6.50;99.90;;;;;;5025421;28;20707;-66
2023/01/30 03:52:46;;;;;;;23.17;10.67;;;6.50;99.90;;;;;;5011292;28;20415;-66
2023/01/30 03:55:14;;;;;;;21.57;9.43;;;6.50;99.90;;;;;;5027509;28;20219;-66
2023/01/30 03:57:43;;;;;;;20.53;10.27;;;6.50;99.90;;;;;;5028573;28;20580;-66
2023/01/30 04:00:13;;;;;;;22.67;10.00;;;6.50;99.90;;;;;;5025241;28;20525;-65
2023/01/30 04:02:41;;;;;;;24.93;9.87;;;6.50;99.90;;;;;;5022772;28;20778;-66
2023/01/30 04:05:10;;;;;;;26.63;10.23;;;6.60;99.90;;;;;;5027722;28;20189;-66
2023/01/30 04:07:38;;;;;;;22.97;9.97;;;6.60;99.90;;;;;;5031330;28;20229;-66
2023/01/30 04:10:09;;;;;;;18.03;9.80;;;6.50;99.90;;;;;;5023615;28;20194;-66
2023/01/30 04:12:37;;;;;;;23.10;9.97;;;6.60;99.90;;;;;;5000090;28;20208;-66
2023/01/30 04:15:06;;;;;;;21.93;9.30;;;6.60;99.90;;;;;;5030736;28;20698;-66
2023/01/30 04:17:35;;;;;;;19.67;9.37;;;6.60;99.90;;;;;;5028268;28;20584;-66
2023/01/30 04:20:05;;;;;;;20.97;8.67;;;6.60;99.90;;;;;;5031137;28;20235;-66
2023/01/30 04:22:33;;;;;;;21.33;8.57;;;6.60;99.90;;;;;;5023326;28;20202;-66
2023/01/30 04:25:01;;;;;;;18.83;9.03;;;6.70;99.90;;;;;;5023453;28;20683;-65
2023/01/30 04:27:31;;;;;;;16.97;8.30;;;6.70;99.90;;;;;;5024027;28;20556;-66
2023/01/30 04:29:59;;;;;;;16.57;8.57;;;6.70;99.90;;;;;;5022853;28;20200;-66
2023/01/30 04:32:27;;;;;;;20.70;8.57;;;6.70;99.90;;;;;;5026646;28;20212;-66
2023/01/30 04:34:56;;;;;;;21.73;7.70;;;6.70;99.90;;;;;;5028947;28;20213;-66
2023/01/30 04:37:24;;;;;;;16.90;7.60;;;6.70;99.90;;;;;;5026169;28;20189;-66
2023/01/30 04:39:52;;;;;;;14.83;7.90;;;6.70;99.90;;;;;;5024628;28;20208;-66
2023/01/30 04:42:21;;;;;;;17.13;8.07;;;6.70;99.90;;;;;;5025866;28;20201;-66
2023/01/30 04:44:50;;;;;;;15.40;6.87;;;6.80;99.90;;;;;;5013542;28;20209;-66
2023/01/30 04:47:19;;;;;;;14.00;7.00;;;6.80;99.90;;;;;;5026857;28;20703;-66
2023/01/30 04:49:47;;;;;;;14.73;7.33;;;6.80;99.90;;;;;;5028410;28;20201;-66
2023/01/30 04:52:15;;;;;;;16.20;7.17;;;6.80;99.90;;;;;;5023798;28;20200;-66
2023/01/30 04:54:44;;;;;;;14.23;6.43;;;6.80;99.90;;;;;;5015728;28;20687;-66
2023/01/30 04:57:12;;;;;;;16.23;6.40;;;6.80;99.90;;;;;;5019533;28;20197;-66
2023/01/30 04:59:41;;;;;;;15.67;5.90;;;6.80;99.90;;;;;;5020908;28;20201;-66
2023/01/30 05:02:10;;;;;;;11.47;6.07;;;6.90;99.90;;;;;;5016259;28;20256;-66
2023/01/30 05:04:39;;;;;;;14.33;6.10;;;6.80;99.90;;;;;;5024309;28;20554;-65
2023/01/30 05:07:07;;;;;;;13.70;6.13;;;6.80;99.90;;;;;;5022173;28;20252;-67
2023/01/30 05:09:36;;;;;;;16.77;5.90;;;6.80;99.90;;;;;;5023681;28;20189;-66
2023/01/30 05:12:04;;;;;;;15.10;6.13;;;6.90;99.90;;;;;;5024547;28;20198;-66
2023/01/30 05:14:33;;;;;;;11.00;6.10;;;6.90;99.90;;;;;;5029699;28;20565;-66
2023/01/30 05:17:02;;;;;;;9.87;5.80;;;6.80;99.90;;;;;;5022747;28;20217;-66
2023/01/30 05:19:32;;;;;;;19.60;6.13;;;6.90;99.90;;;;;;5027448;28;20793;-66
2023/01/30 05:22:00;;;;;;;7.33;5.43;;;6.90;99.90;;;;;;5032019;28;20280;-66
2023/01/30 05:24:28;;;;;;;9.87;6.00;;;6.90;99.90;;;;;;5025216;28;20605;-66
2023/01/30 05:26:56;;;;;;;12.07;5.87;;;6.90;99.90;;;;;;5028660;28;20178;-66
2023/01/30 05:29:25;;;;;;;11.13;6.40;;;6.90;99.90;;;;;;5024622;28;20198;-66
2023/01/30 05:31:53;;;;;;;13.70;6.17;;;6.90;99.90;;;;;;5025901;28;20193;-66
2023/01/30 05:34:22;;;;;;;10.33;5.87;;;6.90;99.90;;;;;;5027185;28;20202;-66
2023/01/30 05:36:51;;;;;;;8.90;6.40;;;6.90;99.90;;;;;;5028011;28;20215;-66
2023/01/30 05:39:20;;;;;;;13.07;6.17;;;7.00;99.90;;;;;;5020125;28;20187;-66
2023/01/30 05:41:48;;;;;;;12.27;5.50;;;7.00;99.90;;;;;;5024230;28;20644;-66
2023/01/30 05:44:19;;;;;;;12.33;5.47;;;7.00;99.90;;;;;;5030899;28;20211;-66
2023/01/30 05:46:47;;;;;;;10.30;6.07;;;7.00;99.90;;;;;;5018914;28;20209;-66
2023/01/30 05:49:16;;;;;;;10.20;6.13;;;7.00;99.90;;;;;;5030088;28;20213;-65
2023/01/30 05:51:44;;;;;;;8.47;5.87;;;7.00;99.90;;;;;;5024962;28;20208;-66
2023/01/30 05:54:14;;;;;;;10.43;5.73;;;6.90;99.90;;;;;;5028561;28;20633;-66
2023/01/30 05:56:42;;;;;;;8.63;6.07;;;6.90;99.90;;;;;;5024278;28;20213;-66
2023/01/30 05:59:14;;;;;;;10.37;6.27;;;7.00;99.90;;;;;;5026955;28;20194;-66
2023/01/30 06:01:42;;;;;;;13.47;6.50;;;7.00;99.90;;;;;;5025981;28;20200;-66
2023/01/30 06:04:11;;;;;;;10.10;5.77;;;7.00;99.90;;;;;;5017217;28;20198;-66
2023/01/30 06:06:39;;;;;;;8.80;6.60;;;7.10;99.90;;;;;;5028642;28;20224;-65
2023/01/30 06:09:10;;;;;;;9.87;6.90;;;7.10;99.90;;;;;;5023331;28;21035;-66
2023/01/30 06:11:39;;;;;;;12.40;6.77;;;7.20;99.90;;;;;;5024525;28;20209;-66
2023/01/30 06:14:08;;;;;;;10.97;6.50;;;7.20;99.90;;;;;;5028330;28;20201;-66
2023/01/30 06:16:37;;;;;;;18.00;8.20;;;7.20;99.90;;;;;;5032159;28;20220;-66
2023/01/30 06:19:05;;;;;;;12.03;7.70;;;7.20;99.90;;;;;;5022332;28;20216;-66
2023/01/30 06:21:33;;;;;;;19.83;7.73;;;7.30;99.90;;;;;;5023701;28;20189;-65
2023/01/30 06:24:02;;;;;;;16.20;8.80;;;7.30;99.90;;;;;;5022593;28;20202;-66
2023/01/30 06:26:30;;;;;;;17.00;8.70;;;7.30;99.90;;;;;;5023126;28;20833;-66
2023/01/30 06:29:00;;;;;;;13.97;6.70;;;7.30;99.90;;;;;;5026681;28;20255;-66
2023/01/30 06:31:28;;;;;;;11.53;6.80;;;7.30;99.90;;;;;;5019290;28;20190;-66
2023/01/30 06:33:57;;;;;;;12.47;6.43;;;7.30;99.90;;;;;;5018179;28;20583;-66
2023/01/30 06:36:25;;;;;;;16.53;8.47;;;7.30;99.90;;;;;;5017943;28;20573;-65
2023/01/30 06:38:53;;;;;;;15.73;7.83;;;7.30;99.90;;;;;;5019078;28;20189;-65
2023/01/30 06:41:22;;;;;;;15.47;7.10;;;7.30;99.90;;;;;;5022121;28;20234;-66
2023/01/30 06:43:50;;;;;;;17.87;7.27;;;7.30;99.90;;;;;;5021469;28;20518;-66
2023/01/30 06:46:20;;;;;;;9.10;5.80;;;7.30;99.90;;;;;;5020494;28;20222;-66
2023/01/30 06:48:48;;;;;;;10.87;5.63;;;7.40;99.90;;;;;;5024694;28;20259;-66
2023/01/30 06:51:16;;;;;;;12.53;5.97;;;7.40;99.90;;;;;;5015695;28;20646;-66
2023/01/30 06:53:44;;;;;;;12.50;6.17;;;7.40;99.90;;;;;;5019344;28;20568;-66
2023/01/30 06:56:13;;;;;;;15.47;6.60;;;7.30;99.90;;;;;;5024210;28;20206;-66
2023/01/30 06:58:41;;;;;;;20.67;9.27;;;7.30;99.90;;;;;;5020570;28;20706;-65
2023/01/30 07:01:11;;;;;;;20.60;9.03;;;7.30;99.90;;;;;;5023022;28;20640;-66
2023/01/30 07:03:41;;;;;;;20.07;8.30;;;7.20;99.90;;;;;;5031949;28;20202;-66
2023/01/30 07:06:09;;;;;;;14.00;6.73;;;7.30;99.90;;;;;;5032208;28;20251;-66
2023/01/30 07:08:39;;;;;;;17.53;5.77;;;7.30;99.90;;;;;;5028181;28;20217;-65
2023/01/30 07:11:08;;;;;;;12.40;5.50;;;7.30;99.90;;;;;;5017949;28;20193;-65
2023/01/30 07:13:36;;;;;;;13.30;4.73;;;7.30;99.90;;;;;;5025789;28;20198;-66
2023/01/30 07:16:05;;;;;;;14.67;4.80;;;7.30;99.90;;;;;;5053540;28;20192;-66
2023/01/30 07:18:33;;;;;;;10.70;5.30;;;7.30;99.90;;;;;;5036721;28;20269;-66
2023/01/30 07:21:03;;;;;;;15.50;6.33;;;7.30;99.90;;;;;;5031899;28;20193;-66
2023/01/30 07:23:31;;;;;;;10.70;4.93;;;7.30;99.90;;;;;;5029206;28;20202;-65
2023/01/30 07:25:59;;;;;;;11.90;5.37;;;7.30;99.90;;;;;;5031385;28;20224;-66
2023/01/30 07:28:27;;;;;;;13.63;4.87;;;7.20;99.90;;;;;;5033858;28;20204;-66
2023/01/30 07:30:59;;;;;;;14.03;4.90;;;7.20;99.90;;;;;;5031193;28;20640;-66
2023/01/30 07:33:28;;;;;;;16.13;5.27;;;7.20;99.90;;;;;;5033634;28;20197;-66
2023/01/30 07:35:57;;;;;;;21.57;5.80;;;7.10;99.90;;;;;;5014934;28;20667;-66
2023/01/30 07:38:27;;;;;;;11.80;4.47;;;7.10;99.90;;;;;;5016741;28;20210;-66
2023/01/30 07:40:58;;;;;;;17.53;5.93;;;7.00;99.90;;;;;;5029488;28;20201;-65
2023/01/30 07:43:26;;;;;;;20.17;5.40;;;7.00;99.90;;;;;;5030420;28;20192;-65
2023/01/30 07:45:54;;;;;;;15.67;5.10;;;7.00;99.90;;;;;;5021887;28;20572;-65
2023/01/30 07:48:22;;;;;;;13.73;5.37;;;6.90;99.90;;;;;;5031853;28;20186;-66
2023/01/30 07:50:51;;;;;;;12.00;4.17;;;6.90;99.90;;;;;;5023143;28;20213;-66
2023/01/30 07:53:19;;;;;;;15.83;5.27;;;6.80;99.90;;;;;;5012925;28;20198;-65
2023/01/30 07:55:49;;;;;;;16.03;5.53;;;6.80;99.90;;;;;;5041433;28;20208;-65
2023/01/30 07:58:17;;;;;;;12.73;4.40;;;6.80;99.90;;;;;;5025148;28;20217;-65
2023/01/30 08:00:45;;;;;;;16.07;5.20;;;6.80;99.90;;;;;;5030578;28;20212;-65
2023/01/30 08:03:15;;;;;;;19.40;6.37;;;6.90;99.90;;;;;;5017223;28;20199;-66
2023/01/30 08:05:46;;;;;;;10.80;4.33;;;6.90;99.90;;;;;;5032406;28;20209;-66
2023/01/30 08:08:15;;;;;;;14.33;4.17;;;6.90;99.90;;;;;;5023220;28;20717;-66
2023/01/30 08:10:44;;;;;;;13.57;4.13;;;6.90;99.90;;;;;;5022684;28;20196;-65
2023/01/30 08:13:14;;;;;;;11.63;4.50;;;6.80;99.90;;;;;;5032935;28;20201;-66
2023/01/30 08:15:42;;;;;;;20.47;3.77;;;6.80;99.90;;;;;;5030881;28;20197;-65
2023/01/30 08:18:10;;;;;;;16.17;3.60;;;6.80;99.90;;;;;;5032922;28;20205;-65
2023/01/30 08:20:38;;;;;;;17.73;3.47;;;6.90;99.90;;;;;;5022837;28;20202;-65
2023/01/30 08:23:07;;;;;;;11.07;3.33;;;6.90;99.90;;;;;;5016174;28;20555;-66
2023/01/30 08:25:35;;;;;;;16.43;3.87;;;6.90;99.90;;;;;;5018512;28;20554;-65
2023/01/30 08:28:04;;;;;;;12.87;3.80;;;6.90;99.90;;;;;;5030031;28;20193;-65
2023/01/30 08:30:34;;;;;;;11.53;4.37;;;6.90;99.90;;;;;;5026377;28;20205;-65
2023/01/30 08:33:02;;;;;;;18.77;5.40;;;6.90;99.90;;;;;;5029299;28;20201;-65
2023/01/30 08:35:31;;;;;;;15.47;4.17;;;7.00;99.90;;;;;;5032151;28;20682;-65
2023/01/30 08:37:59;;;;;;;16.77;4.47;;;7.00;99.90;;;;;;5018602;28;20206;-65
2023/01/30 08:40:27;;;;;;;11.90;4.57;;;7.10;99.90;;;;;;5030108;28;20197;-66
2023/01/30 08:42:56;;;;;;;12.37;4.60;;;7.00;99.90;;;;;;5032478;28;20197;-66
2023/01/30 08:45:24;;;;;;;14.03;3.40;;;7.00;99.90;;;;;;5030484;28;20213;-66
2023/01/30 08:47:57;;;;;;;15.80;4.73;;;7.00;99.90;;;;;;5014565;28;20197;-66
2023/01/30 08:50:26;;;;;;;15.73;5.07;;;7.10;99.90;;;;;;5031578;28;20208;-65
2023/01/30 08:52:54;;;;;;;16.90;4.47;;;7.10;99.90;;;;;;5030177;28;20197;-66
2023/01/30 08:55:22;;;;;;;14.43;4.40;;;7.10;99.90;;;;;;5020749;28;20203;-66
2023/01/30 08:57:51;;;;;;;20.53;5.00;;;7.20;99.90;;;;;;5032270;28;20209;-65
2023/01/30 09:00:20;;;;;;;16.67;4.30;;;7.20;99.90;;;;;;5027918;28;20202;-66
2023/01/30 09:02:48;;;;;;;12.43;4.17;;;7.20;99.90;;;;;;5016954;28;20196;-66
2023/01/30 09:05:18;;;;;;;14.67;4.63;;;7.30;99.90;;;;;;5030378;28;20287;-66
2023/01/30 09:07:47;;;;;;;13.83;3.27;;;7.30;99.90;;;;;;5030659;28;20236;-65
2023/01/30 09:10:15;;;;;;;11.80;3.70;;;7.40;99.90;;;;;;5031605;28;20247;-66
2023/01/30 09:12:45;;;;;;;15.33;3.67;;;7.40;99.90;;;;;;5019784;28;20197;-66
2023/01/30 09:15:13;;;;;;;9.40;3.63;;;7.40;99.90;;;;;;5031580;28;20200;-66
2023/01/30 09:17:43;;;;;;;16.90;3.90;;;7.50;99.90;;;;;;5029956;28;20222;-66
2023/01/30 09:20:12;;;;;;;11.67;3.10;;;7.60;99.90;;;;;;5031936;28;20189;-65
2023/01/30 09:22:42;;;;;;;11.63;3.27;;;7.60;99.90;;;;;;5029876;28;20273;-66
2023/01/30 09:25:10;;;;;;;19.50;3.57;;;7.80;99.90;;;;;;5031588;28;20812;-66
2023/01/30 09:27:43;;;;;;;13.27;3.47;;;7.80;99.90;;;;;;5030427;28;20196;-66
2023/01/30 09:30:12;;;;;;;17.37;3.53;;;8.00;99.90;;;;;;5030785;28;20247;-66
2023/01/30 09:32:41;;;;;;;12.00;3.63;;;8.10;99.90;;;;;;5023994;28;20202;-66
2023/01/30 09:35:09;;;;;;;17.30;3.20;;;8.20;99.90;;;;;;5019358;28;20198;-66
2023/01/30 09:37:37;;;;;;;16.27;3.20;;;8.20;99.90;;;;;;5029183;28;20216;-66
2023/01/30 09:40:14;;;;;;;10.67;3.07;;;8.40;99.90;;;;;;5009365;28;20198;-65
2023/01/30 09:43:09;;;;;;;12.63;3.13;;;8.60;99.90;;;;;;5029148;28;20197;-66
2023/01/30 09:45:52;;;;;;;11.43;3.17;;;8.80;99.90;;;;;;5022692;28;20226;-66
2023/01/30 09:48:28;;;;;;;12.50;2.73;;;9.20;99.90;;;;;;5011042;28;20526;-66
2023/01/30 09:51:20;;;;;;;16.63;3.50;;;9.30;99.90;;;;;;5013607;28;20178;-66
2023/01/30 09:54:15;;;;;;;12.93;3.13;;;9.30;99.90;;;;;;5017745;28;20268;-66
2023/01/30 09:56:45;;;;;;;17.67;3.50;;;9.40;99.90;;;;;;5029975;28;20189;-66
2023/01/30 09:59:21;;;;;;;21.57;4.07;;;9.60;99.90;;;;;;5031707;28;20209;-66
2023/01/30 10:01:58;;;;;;;14.33;3.30;;;9.70;99.90;;;;;;5028628;28;20208;-66
2023/01/30 10:04:33;;;;;;;13.87;3.53;;;9.90;99.90;;;;;;5043726;28;20200;-66
2023/01/30 10:07:13;;;;;;;14.93;3.53;;;10.10;99.90;;;;;;5045314;28;20203;-66
2023/01/30 10:09:50;;;;;;;18.27;3.97;;;10.20;99.90;;;;;;5033914;28;20196;-66
2023/01/30 10:12:31;;;;;;;14.87;3.80;;;10.40;99.90;;;;;;5034506;28;20201;-66
2023/01/30 10:15:39;;;;;;;13.97;3.47;;;10.50;99.90;;;;;;5035403;28;20185;-66
2023/01/30 10:18:25;;;;;;;18.80;3.87;;;10.70;99.90;;;;;;4999136;28;20684;-66
2023/01/30 10:21:08;;;;;;;13.07;3.33;;;10.80;99.90;;;;;;5015441;28;20662;-66
2023/01/30 10:23:51;;;;;;;14.93;2.93;;;10.80;99.90;;;;;;5016484;28;20196;-66
2023/01/30 10:26:21;;;;;;;11.30;3.60;;;11.00;99.90;;;;;;5015379;28;20277;-66
2023/01/30 10:28:58;;;;;;;22.80;3.40;;;11.00;99.90;;;;;;5031996;28;20224;-66
2023/01/30 10:31:40;;;;;;;7.17;3.20;;;11.10;99.90;;;;;;5031416;28;20201;-66
2023/01/30 10:34:14;;;;;;;9.37;3.03;;;11.30;99.90;;;;;;5028693;28;20201;-66
2023/01/30 10:36:52;;;;;;;16.57;3.13;;;11.40;99.90;;;;;;5025804;28;20626;-66
2023/01/30 10:39:29;;;;;;;10.83;3.23;;;11.50;99.90;;;;;;5028714;28;20570;-66
2023/01/30 10:42:05;;;;;;;13.00;3.40;;;11.40;99.90;;;;;;5045732;28;20198;-67
2023/01/30 10:44:35;;;;;;;8.13;2.57;;;11.50;99.90;;;;;;5018084;28;20198;-66
2023/01/30 10:47:32;;;;;;;9.63;2.90;;;11.70;99.90;;;;;;5018729;28;20220;-66
2023/01/30 10:50:17;;;;;;;16.77;3.23;;;11.70;99.90;;;;;;5011413;28;20229;-66
2023/01/30 10:52:54;;;;;;;10.03;3.20;;;11.70;99.90;;;;;;5031794;28;20243;-66
2023/01/30 10:55:32;;;;;;;19.33;3.17;;;11.50;99.90;;;;;;5034730;28;20247;-67
2023/01/30 10:58:16;;;;;;;16.23;4.13;;;11.30;99.90;;;;;;5033713;28;20583;-67
2023/01/30 11:00:52;;;;;;;10.23;2.97;;;11.00;99.90;;;;;;5033281;28;20207;-66
2023/01/30 11:03:31;;;;;;;10.17;2.93;;;10.80;99.90;;;;;;5034789;28;20193;-66
2023/01/30 11:06:03;;;;;;;13.20;3.53;;;10.60;99.90;;;;;;5052764;28;20219;-66
2023/01/30 11:08:33;;;;;;;14.73;3.13;;;10.50;99.90;;;;;;5022918;28;20249;-65
2023/01/30 11:11:20;;;;;;;12.60;2.90;;;10.30;99.90;;;;;;5021923;28;20198;-66
2023/01/30 11:13:48;;;;;;;14.37;3.23;;;10.30;99.90;;;;;;5028381;28;20255;-66
2023/01/30 11:16:18;;;;;;;16.67;3.53;;;10.40;99.90;;;;;;5031808;28;20676;-66
2023/01/30 11:18:49;;;;;;;16.13;3.20;;;10.20;99.90;;;;;;5020466;28;20214;-66
2023/01/30 11:21:41;;;;;;;12.43;3.27;;;10.10;99.90;;;;;;5031068;28;20200;-67
2023/01/30 11:24:17;;;;;;;13.40;3.20;;;10.10;99.90;;;;;;5032246;28;20196;-66
2023/01/30 11:26:46;;;;;;;19.50;3.10;;;10.40;99.90;;;;;;5018921;28;20224;-66
2023/01/30 11:29:23;;;;;;;13.73;3.10;;;10.60;99.90;;;;;;5020969;28;20277;-66
2023/01/30 11:31:54;;;;;;;14.37;2.97;;;10.80;99.90;;;;;;5025628;28;20195;-67
2023/01/30 11:34:24;;;;;;;15.73;2.60;;;10.90;99.90;;;;;;5018738;28;20256;-66
2023/01/30 11:36:52;;;;;;;11.43;3.20;;;10.90;99.90;;;;;;5016506;28;20655;-66
2023/01/30 11:39:23;;;;;;;12.57;3.23;;;10.80;99.90;;;;;;5022361;28;20665;-66
2023/01/30 11:42:03;;;;;;;15.30;3.10;;;10.70;99.90;;;;;;5021322;28;20301;-66
2023/01/30 11:44:34;;;;;;;14.37;2.97;;;10.50;99.90;;;;;;5026498;28;20281;-66
2023/01/30 11:47:08;;;;;;;13.03;3.33;;;10.30;99.90;;;;;;5026013;28;20672;-67
2023/01/30 11:49:42;;;;;;;12.40;3.10;;;10.20;99.90;;;;;;5022566;28;20678;-66
2023/01/30 11:52:30;;;;;;;20.67;3.23;;;10.10;99.90;;;;;;5016473;28;20275;-66
2023/01/30 11:55:04;;;;;;;17.33;3.33;;;10.20;99.90;;;;;;5030075;28;20204;-66
2023/01/30 11:57:41;;;;;;;11.07;2.73;;;10.30;99.90;;;;;;5023776;28;20201;-66
2023/01/30 12:00:19;;;;;;;15.60;3.33;;;10.40;99.90;;;;;;5021830;28;20297;-66
2023/01/30 12:02:51;;;;;;;12.30;3.03;;;10.40;99.90;;;;;;5035605;28;20201;-66
2023/01/30 12:05:26;;;;;;;15.07;3.27;;;10.30;99.90;;;;;;5043719;28;20196;-66
2023/01/30 12:08:12;;;;;;;10.93;2.83;;;10.30;99.90;;;;;;5017318;28;20690;-66
2023/01/30 12:10:43;;;;;;;14.40;3.03;;;10.20;99.90;;;;;;5019135;28;20193;-66
2023/01/30 12:13:20;;;;;;;14.97;3.03;;;10.20;99.90;;;;;;5025348;28;20209;-66
2023/01/30 12:16:04;;;;;;;12.43;2.80;;;10.20;99.90;;;;;;5016199;28;20541;-66
2023/01/30 12:18:38;;;;;;;12.73;3.07;;;10.40;99.90;;;;;;5020349;28;20288;-66
2023/01/30 12:21:13;;;;;;;15.30;2.97;;;10.40;99.90;;;;;;5032205;28;20205;-66
2023/01/30 12:23:46;;;;;;;14.47;3.37;;;10.30;99.90;;;;;;5029344;28;20201;-66
2023/01/30 12:26:18;;;;;;;14.00;3.07;;;10.40;99.90;;;;;;5032160;28;20198;-66
2023/01/30 12:28:52;;;;;;;10.37;3.57;;;10.40;99.90;;;;;;5032097;28;20272;-66
2023/01/30 12:31:25;;;;;;;11.17;3.03;;;10.30;99.90;;;;;;5022128;28;20670;-66
2023/01/30 12:33:55;;;;;;;12.40;2.97;;;10.20;99.90;;;;;;5017627;28;20200;-66
2023/01/30 12:36:35;;;;;;;11.27;3.00;;;10.20;99.90;;;;;;5023891;28;20205;-66
2023/01/30 12:39:19;;;;;;;21.47;4.00;;;10.20;99.90;;;;;;5026565;28;20193;-66
2023/01/30 12:42:08;;;;;;;15.43;3.20;;;10.00;99.90;;;;;;5028139;28;20544;-66
2023/01/30 12:44:55;;;;;;;16.13;3.17;;;9.90;99.90;;;;;;5023157;28;20193;-66
2023/01/30 12:47:48;;;;;;;16.33;3.57;;;9.90;99.90;;;;;;5028948;28;20190;-66
2023/01/30 12:50:36;;;;;;;18.50;3.60;;;9.80;99.90;;;;;;5031903;28;20197;-66
2023/01/30 12:53:30;;;;;;;17.47;3.70;;;9.80;99.90;;;;;;5019634;28;20292;-66
2023/01/30 12:56:15;;;;;;;14.10;2.90;;;9.90;99.90;;;;;;5026264;28;20201;-66
2023/01/30 12:58:50;;;;;;;19.77;3.90;;;10.10;99.90;;;;;;5030386;28;20189;-66
2023/01/30 13:01:28;;;;;;;12.77;2.77;;;10.30;99.90;;;;;;5029849;28;20224;-66
2023/01/30 13:04:05;;;;;;;11.97;3.10;;;10.50;99.90;;;;;;5039878;28;20185;-66
2023/01/30 13:06:48;;;;;;;14.43;3.13;;;10.70;99.90;;;;;;5031933;28;20197;-66
2023/01/30 13:09:36;;;;;;;12.57;3.10;;;10.80;99.90;;;;;;5011553;28;20190;-66
2023/01/30 13:12:13;;;;;;;14.13;3.47;;;11.10;99.90;;;;;;5012674;28;20181;-66
2023/01/30 13:14:48;;;;;;;13.33;3.10;;;11.00;99.90;;;;;;5028682;28;20189;-66
2023/01/30 13:17:51;;;;;;;12.87;3.07;;;10.90;99.90;;;;;;5046173;28;20196;-66